Meteo Giornale » Osservazioni meteo Argentina » Trelew Aerodrome
ore: 14:00 - Osservazioni Meteo Trelew Aerodrome
Lat. 43° 12' S Lon. 65° 16' W Alt. 39 metri s.l.m.
14 °C
Sereno
Temp. 24 Ore
6 °C
16 °C
Ovest
31.5 Km/h
Dew point -5 °C
Umidità 26 %
Visibilità 10 Km
Il sole sorge alle ore 07:48
Il sole tramonta alle ore 18:53
| Data e Ora | Cielo e Fenomeni | T °C | DP °C | Um. % | Pres. hPa | Vis. km | Vento km/h | |
|---|---|---|---|---|---|---|---|---|
| Oggi h: 14:00 | Sereno | 14 | -5 | 26 | 1013 | 10 | O 31.5 | |
| Oggi h: 13:00 | Sereno | 13 | -5 | 28 | 1013 | 10 | O/SO 46.3 | |
| Oggi h: 12:00 | Sereno | 13 | -4 | 30 | 1013 | 10 | O/SO 50 | |
| Oggi h: 11:12 | Sereno | 12 | -3 | 34 | 1013 | 10 | O 50 | |
| Oggi h: 11:00 | Sereno | 11 | -3 | 37 | 1012 | 10 | O 50 | |
| Oggi h: 10:42 | Sereno | 11 | -2 | 40 | 1012 | 10 | O 44.4 | |
| Oggi h: 10:00 | Sereno | 10 | -1 | 46 | 1013 | 10 | O 38.8 | |
| Oggi h: 09:27 | Sereno | 9 | -1 | 49 | 1012 | 10 | O 38.8 | |
| Oggi h: 09:00 | Sereno | 8 | -1 | 52 | 1012 | 10 | O 33.3 | |
| Oggi h: 08:00 | Sereno | 6 | -1 | 60 | 1010 | 10 | O 29.6 | |
| Oggi h: 07:00 | Sereno | 7 | 0 | 60 | 1010 | 10 | O 29.6 | |
| Oggi h: 06:00 | Sereno | 6 | 2 | 75 | 1009 | 10 | O 16.7 | |
| Oggi h: 05:00 | Sereno | 6 | 3 | 81 | 1008 | 10 | O 16.7 | |
| Oggi h: 04:00 | Sereno | 6 | 4 | 86 | 1009 | 10 | O 11.1 | |
| Oggi h: 03:00 | Sereno | 8 | 4 | 75 | 1008 | 10 | O 18.5 | |
| Oggi h: 02:00 | Sereno | 7 | 3 | 75 | 1008 | 10 | N/NO 13 | |
| Oggi h: 01:00 | Poco Nuvoloso | 9 | 4 | 70 | 1007 | 10 | O/SO 11.1 | |
| Oggi h: 00:00 | Pioggia | 10 | 2 | 57 | 1007 | 10 | N 13 | |
| Ieri h: 23:00 | Poco Nuvoloso | 11 | 0 | 46 | 1008 | 10 | N/NO 14.8 | |
| Ieri h: 22:00 | Sereno | 11 | 0 | 46 | 1008 | 10 | N 22.2 | |
| Ieri h: 21:00 | Sereno | 12 | -1 | 40 | 1008 | 10 | N 16.7 | |
| Ieri h: 20:00 | Sereno | 11 | 0 | 46 | 1008 | 10 | N/NE 11.1 | |
| Ieri h: 19:00 | Sereno | 12 | -2 | 37 | 1009 | 10 | N 5.5 | |
| Ieri h: 18:00 | Sereno | 15 | -4 | 26 | 1009 | 10 | O 9.3 | |
| Ieri h: 17:00 | Sereno | 15 | -5 | 24 | 1009 | 10 | O/NO 14.8 | |
| Ieri h: 16:00 | Sereno | 16 | -3 | 26 | 1010 | 10 | O/NO 22.2 | |
| Ieri h: 15:00 | Sereno | 15 | -3 | 28 | 1010 | 10 | O 18.5 | |



